sensor_id;sensor_type;location;lat;lon;timestamp;P1;durP1;ratioP1;P2;durP2;ratioP2
70132;SDS011;57495;49.922;7.966;2022-10-31T00:01:25;7.00;;;3.13;;
70132;SDS011;57495;49.922;7.966;2022-10-31T00:03:28;11.77;;;3.80;;
70132;SDS011;57495;49.922;7.966;2022-10-31T00:05:29;12.75;;;4.13;;
70132;SDS011;57495;49.922;7.966;2022-10-31T00:07:30;10.68;;;4.03;;
70132;SDS011;57495;49.922;7.966;2022-10-31T00:09:32;11.15;;;4.00;;
70132;SDS011;57495;49.922;7.966;2022-10-31T00:11:33;9.35;;;4.03;;
70132;SDS011;57495;49.922;7.966;2022-10-31T00:13:35;9.97;;;3.93;;
70132;SDS011;57495;49.922;7.966;2022-10-31T00:15:37;7.53;;;3.88;;
70132;SDS011;57495;49.922;7.966;2022-10-31T00:17:40;8.57;;;3.90;;
70132;SDS011;57495;49.922;7.966;2022-10-31T00:19:42;12.45;;;3.60;;
70132;SDS011;57495;49.922;7.966;2022-10-31T00:21:43;9.23;;;3.58;;
70132;SDS011;57495;49.922;7.966;2022-10-31T00:23:45;7.40;;;3.13;;
70132;SDS011;57495;49.922;7.966;2022-10-31T00:25:46;8.43;;;4.05;;
70132;SDS011;57495;49.922;7.966;2022-10-31T00:27:48;8.45;;;4.40;;
70132;SDS011;57495;49.922;7.966;2022-10-31T00:29:49;12.23;;;3.65;;
70132;SDS011;57495;49.922;7.966;2022-10-31T00:31:51;13.00;;;3.92;;
70132;SDS011;57495;49.922;7.966;2022-10-31T00:33:54;8.80;;;3.40;;
70132;SDS011;57495;49.922;7.966;2022-10-31T00:35:56;11.85;;;3.60;;
70132;SDS011;57495;49.922;7.966;2022-10-31T00:37:57;11.05;;;3.53;;
70132;SDS011;57495;49.922;7.966;2022-10-31T00:39:59;12.32;;;3.20;;
70132;SDS011;57495;49.922;7.966;2022-10-31T00:42:00;8.07;;;3.00;;
70132;SDS011;57495;49.922;7.966;2022-10-31T00:44:02;8.50;;;2.83;;
70132;SDS011;57495;49.922;7.966;2022-10-31T00:46:03;8.75;;;2.92;;
70132;SDS011;57495;49.922;7.966;2022-10-31T00:48:05;10.13;;;3.13;;
70132;SDS011;57495;49.922;7.966;2022-10-31T00:50:08;14.77;;;3.55;;
70132;SDS011;57495;49.922;7.966;2022-10-31T00:52:10;9.38;;;3.67;;
70132;SDS011;57495;49.922;7.966;2022-10-31T00:54:11;6.47;;;2.77;;
70132;SDS011;57495;49.922;7.966;2022-10-31T00:56:12;12.10;;;3.10;;
70132;SDS011;57495;49.922;7.966;2022-10-31T00:58:14;8.48;;;3.30;;
70132;SDS011;57495;49.922;7.966;2022-10-31T01:00:15;7.90;;;2.78;;
70132;SDS011;57495;49.922;7.966;2022-10-31T01:02:17;7.68;;;3.60;;
70132;SDS011;57495;49.922;7.966;2022-10-31T01:04:19;7.77;;;2.90;;
70132;SDS011;57495;49.922;7.966;2022-10-31T01:06:22;18.52;;;3.50;;
70132;SDS011;57495;49.922;7.966;2022-10-31T01:08:23;10.13;;;3.50;;
70132;SDS011;57495;49.922;7.966;2022-10-31T01:10:25;9.85;;;3.30;;
70132;SDS011;57495;49.922;7.966;2022-10-31T01:12:26;13.23;;;3.25;;
70132;SDS011;57495;49.922;7.966;2022-10-31T01:14:28;13.20;;;3.10;;
70132;SDS011;57495;49.922;7.966;2022-10-31T01:16:29;14.18;;;3.03;;
70132;SDS011;57495;49.922;7.966;2022-10-31T01:18:31;9.15;;;3.55;;
70132;SDS011;57495;49.922;7.966;2022-10-31T01:20:32;13.73;;;2.92;;
70132;SDS011;57495;49.922;7.966;2022-10-31T01:22:35;8.82;;;3.22;;
70132;SDS011;57495;49.922;7.966;2022-10-31T01:24:36;10.83;;;3.27;;
70132;SDS011;57495;49.922;7.966;2022-10-31T01:26:38;8.90;;;3.28;;
70132;SDS011;57495;49.922;7.966;2022-10-31T01:28:43;10.63;;;3.50;;
70132;SDS011;57495;49.922;7.966;2022-10-31T01:30:46;7.93;;;2.70;;
70132;SDS011;57495;49.922;7.966;2022-10-31T01:32:47;9.80;;;3.10;;
70132;SDS011;57495;49.922;7.966;2022-10-31T01:34:49;11.67;;;3.53;;
70132;SDS011;57495;49.922;7.966;2022-10-31T01:36:50;11.32;;;3.42;;
70132;SDS011;57495;49.922;7.966;2022-10-31T01:38:54;10.55;;;4.38;;
70132;SDS011;57495;49.922;7.966;2022-10-31T01:40:57;11.90;;;3.50;;
70132;SDS011;57495;49.922;7.966;2022-10-31T01:42:58;12.18;;;3.85;;
70132;SDS011;57495;49.922;7.966;2022-10-31T01:45:00;8.90;;;3.20;;
70132;SDS011;57495;49.922;7.966;2022-10-31T01:47:03;14.68;;;3.58;;
70132;SDS011;57495;49.922;7.966;2022-10-31T01:49:08;10.02;;;4.28;;
70132;SDS011;57495;49.922;7.966;2022-10-31T01:51:12;10.80;;;3.80;;
70132;SDS011;57495;49.922;7.966;2022-10-31T01:53:18;8.63;;;3.45;;
70132;SDS011;57495;49.922;7.966;2022-10-31T01:55:22;10.43;;;4.30;;
70132;SDS011;57495;49.922;7.966;2022-10-31T01:57:26;8.98;;;3.28;;
70132;SDS011;57495;49.922;7.966;2022-10-31T01:59:30;12.32;;;3.63;;
70132;SDS011;57495;49.922;7.966;2022-10-31T02:01:35;10.48;;;3.47;;
70132;SDS011;57495;49.922;7.966;2022-10-31T02:03:38;11.02;;;3.40;;
70132;SDS011;57495;49.922;7.966;2022-10-31T02:05:39;10.53;;;3.77;;
70132;SDS011;57495;49.922;7.966;2022-10-31T02:07:45;9.60;;;3.60;;
70132;SDS011;57495;49.922;7.966;2022-10-31T02:09:53;11.27;;;3.47;;
70132;SDS011;57495;49.922;7.966;2022-10-31T02:11:58;9.52;;;3.30;;
70132;SDS011;57495;49.922;7.966;2022-10-31T02:14:02;9.45;;;3.50;;
70132;SDS011;57495;49.922;7.966;2022-10-31T02:16:04;9.47;;;3.33;;
70132;SDS011;57495;49.922;7.966;2022-10-31T02:18:05;11.02;;;3.67;;
70132;SDS011;57495;49.922;7.966;2022-10-31T02:20:11;10.88;;;4.22;;
70132;SDS011;57495;49.922;7.966;2022-10-31T02:22:18;10.48;;;3.88;;
70132;SDS011;57495;49.922;7.966;2022-10-31T02:27:04;10.80;;;3.30;;
70132;SDS011;57495;49.922;7.966;2022-10-31T02:29:19;8.30;;;3.60;;
70132;SDS011;57495;49.922;7.966;2022-10-31T02:31:37;8.80;;;3.45;;
70132;SDS011;57495;49.922;7.966;2022-10-31T02:33:45;13.43;;;3.97;;
70132;SDS011;57495;49.922;7.966;2022-10-31T02:35:54;7.53;;;3.38;;
70132;SDS011;57495;49.922;7.966;2022-10-31T02:38:05;10.17;;;3.23;;
70132;SDS011;57495;49.922;7.966;2022-10-31T02:40:15;9.32;;;3.40;;
70132;SDS011;57495;49.922;7.966;2022-10-31T02:42:23;11.50;;;3.78;;
70132;SDS011;57495;49.922;7.966;2022-10-31T02:44:35;9.43;;;3.75;;
70132;SDS011;57495;49.922;7.966;2022-10-31T02:46:43;12.57;;;3.47;;
70132;SDS011;57495;49.922;7.966;2022-10-31T02:48:50;9.90;;;3.37;;
70132;SDS011;57495;49.922;7.966;2022-10-31T02:50:56;8.45;;;3.20;;
70132;SDS011;57495;49.922;7.966;2022-10-31T02:53:01;9.95;;;3.80;;
70132;SDS011;57495;49.922;7.966;2022-10-31T02:55:09;8.75;;;3.45;;
70132;SDS011;57495;49.922;7.966;2022-10-31T02:57:12;12.13;;;5.22;;
70132;SDS011;57495;49.922;7.966;2022-10-31T02:59:16;11.57;;;4.13;;
70132;SDS011;57495;49.922;7.966;2022-10-31T03:01:21;12.07;;;4.28;;
70132;SDS011;57495;49.922;7.966;2022-10-31T03:03:41;9.15;;;3.60;;
70132;SDS011;57495;49.922;7.966;2022-10-31T03:05:53;13.93;;;4.03;;
70132;SDS011;57495;49.922;7.966;2022-10-31T03:08:00;13.13;;;3.40;;
70132;SDS011;57495;49.922;7.966;2022-10-31T03:10:12;9.13;;;3.80;;
70132;SDS011;57495;49.922;7.966;2022-10-31T03:12:22;12.45;;;3.80;;
70132;SDS011;57495;49.922;7.966;2022-10-31T03:14:31;9.40;;;3.75;;
70132;SDS011;57495;49.922;7.966;2022-10-31T03:16:43;8.48;;;3.88;;
70132;SDS011;57495;49.922;7.966;2022-10-31T03:18:49;7.85;;;3.67;;
70132;SDS011;57495;49.922;7.966;2022-10-31T03:20:56;11.27;;;3.43;;
70132;SDS011;57495;49.922;7.966;2022-10-31T03:23:02;14.40;;;3.88;;
70132;SDS011;57495;49.922;7.966;2022-10-31T03:25:06;8.73;;;4.05;;
70132;SDS011;57495;49.922;7.966;2022-10-31T03:27:10;9.68;;;4.20;;
70132;SDS011;57495;49.922;7.966;2022-10-31T03:29:16;12.13;;;4.32;;
70132;SDS011;57495;49.922;7.966;2022-10-31T03:31:22;9.50;;;3.40;;
70132;SDS011;57495;49.922;7.966;2022-10-31T03:33:29;10.07;;;4.03;;
70132;SDS011;57495;49.922;7.966;2022-10-31T03:35:35;10.05;;;4.45;;
70132;SDS011;57495;49.922;7.966;2022-10-31T03:37:38;8.75;;;3.72;;
70132;SDS011;57495;49.922;7.966;2022-10-31T03:39:42;10.95;;;3.85;;
70132;SDS011;57495;49.922;7.966;2022-10-31T03:41:49;14.17;;;4.43;;
70132;SDS011;57495;49.922;7.966;2022-10-31T03:43:57;10.05;;;4.40;;
70132;SDS011;57495;49.922;7.966;2022-10-31T03:46:02;9.75;;;3.75;;
70132;SDS011;57495;49.922;7.966;2022-10-31T03:48:05;8.07;;;3.50;;
70132;SDS011;57495;49.922;7.966;2022-10-31T03:50:07;11.40;;;4.13;;
70132;SDS011;57495;49.922;7.966;2022-10-31T03:52:12;11.17;;;4.07;;
70132;SDS011;57495;49.922;7.966;2022-10-31T03:54:24;10.20;;;3.97;;
70132;SDS011;57495;49.922;7.966;2022-10-31T03:56:33;9.85;;;4.13;;
70132;SDS011;57495;49.922;7.966;2022-10-31T03:58:38;9.02;;;3.67;;
70132;SDS011;57495;49.922;7.966;2022-10-31T04:00:46;9.88;;;3.50;;
70132;SDS011;57495;49.922;7.966;2022-10-31T04:02:53;9.30;;;3.87;;
70132;SDS011;57495;49.922;7.966;2022-10-31T04:04:58;10.73;;;4.07;;
70132;SDS011;57495;49.922;7.966;2022-10-31T04:07:00;14.30;;;4.32;;
70132;SDS011;57495;49.922;7.966;2022-10-31T04:09:05;12.32;;;3.58;;
70132;SDS011;57495;49.922;7.966;2022-10-31T04:11:09;8.35;;;3.20;;
70132;SDS011;57495;49.922;7.966;2022-10-31T04:13:15;9.93;;;3.67;;
70132;SDS011;57495;49.922;7.966;2022-10-31T04:15:21;10.90;;;3.40;;
70132;SDS011;57495;49.922;7.966;2022-10-31T04:17:24;8.70;;;3.58;;
70132;SDS011;57495;49.922;7.966;2022-10-31T04:19:31;7.63;;;3.33;;
70132;SDS011;57495;49.922;7.966;2022-10-31T04:21:33;13.52;;;3.90;;
70132;SDS011;57495;49.922;7.966;2022-10-31T04:23:35;13.23;;;3.63;;
70132;SDS011;57495;49.922;7.966;2022-10-31T04:25:38;10.20;;;3.70;;
70132;SDS011;57495;49.922;7.966;2022-10-31T04:27:40;10.98;;;3.63;;
70132;SDS011;57495;49.922;7.966;2022-10-31T04:29:41;8.20;;;3.70;;
70132;SDS011;57495;49.922;7.966;2022-10-31T04:31:43;8.15;;;3.78;;
70132;SDS011;57495;49.922;7.966;2022-10-31T04:33:44;9.30;;;3.80;;
70132;SDS011;57495;49.922;7.966;2022-10-31T04:35:46;8.73;;;3.30;;
70132;SDS011;57495;49.922;7.966;2022-10-31T04:37:47;10.05;;;3.35;;
70132;SDS011;57495;49.922;7.966;2022-10-31T04:39:49;11.73;;;4.10;;
70132;SDS011;57495;49.922;7.966;2022-10-31T04:41:51;9.85;;;3.10;;
70132;SDS011;57495;49.922;7.966;2022-10-31T04:43:53;8.97;;;3.00;;
70132;SDS011;57495;49.922;7.966;2022-10-31T04:45:55;6.80;;;3.35;;
70132;SDS011;57495;49.922;7.966;2022-10-31T04:47:56;9.88;;;3.00;;
70132;SDS011;57495;49.922;7.966;2022-10-31T04:49:58;8.93;;;3.25;;
70132;SDS011;57495;49.922;7.966;2022-10-31T04:51:59;8.30;;;3.40;;
70132;SDS011;57495;49.922;7.966;2022-10-31T04:54:00;6.77;;;2.67;;
70132;SDS011;57495;49.922;7.966;2022-10-31T04:56:02;6.32;;;2.90;;
70132;SDS011;57495;49.922;7.966;2022-10-31T04:58:05;7.43;;;2.95;;
70132;SDS011;57495;49.922;7.966;2022-10-31T05:00:07;8.20;;;3.08;;
70132;SDS011;57495;49.922;7.966;2022-10-31T05:02:09;8.30;;;2.80;;
70132;SDS011;57495;49.922;7.966;2022-10-31T05:04:10;7.67;;;3.30;;
70132;SDS011;57495;49.922;7.966;2022-10-31T05:06:12;9.50;;;3.08;;
70132;SDS011;57495;49.922;7.966;2022-10-31T05:08:13;9.43;;;3.33;;
70132;SDS011;57495;49.922;7.966;2022-10-31T05:10:17;8.77;;;3.42;;
70132;SDS011;57495;49.922;7.966;2022-10-31T05:12:19;8.10;;;3.45;;
70132;SDS011;57495;49.922;7.966;2022-10-31T05:14:22;10.80;;;3.10;;
70132;SDS011;57495;49.922;7.966;2022-10-31T05:16:23;9.68;;;3.30;;
70132;SDS011;57495;49.922;7.966;2022-10-31T05:18:25;9.93;;;3.35;;
70132;SDS011;57495;49.922;7.966;2022-10-31T05:20:27;8.95;;;3.35;;
70132;SDS011;57495;49.922;7.966;2022-10-31T05:22:29;7.97;;;3.60;;
70132;SDS011;57495;49.922;7.966;2022-10-31T05:24:31;6.77;;;3.20;;
70132;SDS011;57495;49.922;7.966;2022-10-31T05:26:32;9.15;;;3.25;;
70132;SDS011;57495;49.922;7.966;2022-10-31T05:28:34;9.00;;;3.67;;
70132;SDS011;57495;49.922;7.966;2022-10-31T05:30:36;10.38;;;3.00;;
70132;SDS011;57495;49.922;7.966;2022-10-31T05:32:38;10.60;;;3.33;;
70132;SDS011;57495;49.922;7.966;2022-10-31T05:34:39;14.57;;;3.73;;
70132;SDS011;57495;49.922;7.966;2022-10-31T05:36:41;7.07;;;2.95;;
70132;SDS011;57495;49.922;7.966;2022-10-31T05:38:42;8.50;;;3.50;;
70132;SDS011;57495;49.922;7.966;2022-10-31T05:40:44;7.85;;;3.40;;
70132;SDS011;57495;49.922;7.966;2022-10-31T05:42:45;8.93;;;2.72;;
70132;SDS011;57495;49.922;7.966;2022-10-31T05:44:47;10.87;;;3.60;;
70132;SDS011;57495;49.922;7.966;2022-10-31T05:46:50;7.65;;;3.00;;
70132;SDS011;57495;49.922;7.966;2022-10-31T05:48:51;9.05;;;3.45;;
70132;SDS011;57495;49.922;7.966;2022-10-31T05:50:53;11.25;;;3.53;;
70132;SDS011;57495;49.922;7.966;2022-10-31T05:52:55;7.60;;;3.53;;
70132;SDS011;57495;49.922;7.966;2022-10-31T05:54:57;10.27;;;3.80;;
70132;SDS011;57495;49.922;7.966;2022-10-31T05:56:58;12.45;;;3.75;;
70132;SDS011;57495;49.922;7.966;2022-10-31T05:59:00;7.60;;;3.22;;
70132;SDS011;57495;49.922;7.966;2022-10-31T06:01:01;10.00;;;3.65;;
70132;SDS011;57495;49.922;7.966;2022-10-31T06:03:05;8.18;;;3.63;;
70132;SDS011;57495;49.922;7.966;2022-10-31T06:05:08;9.20;;;3.40;;
70132;SDS011;57495;49.922;7.966;2022-10-31T06:07:09;10.90;;;3.78;;
70132;SDS011;57495;49.922;7.966;2022-10-31T06:09:11;11.52;;;4.10;;
70132;SDS011;57495;49.922;7.966;2022-10-31T06:11:12;9.80;;;3.47;;
70132;SDS011;57495;49.922;7.966;2022-10-31T06:13:13;10.90;;;4.32;;
70132;SDS011;57495;49.922;7.966;2022-10-31T06:15:15;12.80;;;4.57;;
70132;SDS011;57495;49.922;7.966;2022-10-31T06:17:17;9.25;;;4.20;;
70132;SDS011;57495;49.922;7.966;2022-10-31T06:19:20;8.75;;;3.20;;
70132;SDS011;57495;49.922;7.966;2022-10-31T06:21:21;8.98;;;3.75;;
70132;SDS011;57495;49.922;7.966;2022-10-31T06:23:23;8.80;;;3.85;;
70132;SDS011;57495;49.922;7.966;2022-10-31T06:25:25;7.67;;;3.13;;
70132;SDS011;57495;49.922;7.966;2022-10-31T06:27:26;9.23;;;4.03;;
70132;SDS011;57495;49.922;7.966;2022-10-31T06:29:28;7.32;;;3.20;;
70132;SDS011;57495;49.922;7.966;2022-10-31T06:31:29;9.07;;;3.55;;
70132;SDS011;57495;49.922;7.966;2022-10-31T06:33:30;8.38;;;4.10;;
70132;SDS011;57495;49.922;7.966;2022-10-31T06:35:33;9.03;;;4.10;;
70132;SDS011;57495;49.922;7.966;2022-10-31T06:37:35;12.23;;;4.82;;
70132;SDS011;57495;49.922;7.966;2022-10-31T06:39:36;13.82;;;5.25;;
70132;SDS011;57495;49.922;7.966;2022-10-31T06:41:37;11.35;;;4.25;;
70132;SDS011;57495;49.922;7.966;2022-10-31T06:43:41;14.95;;;7.18;;
70132;SDS011;57495;49.922;7.966;2022-10-31T06:45:42;19.00;;;6.90;;
70132;SDS011;57495;49.922;7.966;2022-10-31T06:47:49;15.15;;;6.50;;
70132;SDS011;57495;49.922;7.966;2022-10-31T06:49:51;15.40;;;6.65;;
70132;SDS011;57495;49.922;7.966;2022-10-31T06:51:54;15.68;;;6.35;;
70132;SDS011;57495;49.922;7.966;2022-10-31T06:53:56;12.40;;;5.70;;
70132;SDS011;57495;49.922;7.966;2022-10-31T06:55:57;12.67;;;4.90;;
70132;SDS011;57495;49.922;7.966;2022-10-31T06:57:59;15.80;;;5.05;;
70132;SDS011;57495;49.922;7.966;2022-10-31T07:00:01;9.93;;;4.78;;
70132;SDS011;57495;49.922;7.966;2022-10-31T07:02:03;14.60;;;5.70;;
70132;SDS011;57495;49.922;7.966;2022-10-31T07:04:05;10.63;;;4.18;;
70132;SDS011;57495;49.922;7.966;2022-10-31T07:06:06;8.53;;;4.37;;
70132;SDS011;57495;49.922;7.966;2022-10-31T07:08:10;10.60;;;4.00;;
70132;SDS011;57495;49.922;7.966;2022-10-31T07:10:12;10.45;;;4.40;;
70132;SDS011;57495;49.922;7.966;2022-10-31T07:12:15;10.32;;;4.43;;
70132;SDS011;57495;49.922;7.966;2022-10-31T07:14:16;9.40;;;4.30;;
70132;SDS011;57495;49.922;7.966;2022-10-31T07:16:18;8.60;;;4.00;;
70132;SDS011;57495;49.922;7.966;2022-10-31T07:18:20;8.50;;;4.13;;
70132;SDS011;57495;49.922;7.966;2022-10-31T07:20:22;13.23;;;4.35;;
70132;SDS011;57495;49.922;7.966;2022-10-31T07:22:23;10.70;;;4.70;;
70132;SDS011;57495;49.922;7.966;2022-10-31T07:24:26;9.82;;;4.10;;
70132;SDS011;57495;49.922;7.966;2022-10-31T07:26:27;10.83;;;4.30;;
70132;SDS011;57495;49.922;7.966;2022-10-31T07:28:29;9.35;;;4.30;;
70132;SDS011;57495;49.922;7.966;2022-10-31T07:30:30;10.52;;;4.47;;
70132;SDS011;57495;49.922;7.966;2022-10-31T07:32:41;9.02;;;3.97;;
70132;SDS011;57495;49.922;7.966;2022-10-31T07:34:44;11.13;;;3.90;;
70132;SDS011;57495;49.922;7.966;2022-10-31T07:36:45;8.47;;;3.90;;
70132;SDS011;57495;49.922;7.966;2022-10-31T07:38:47;9.02;;;3.63;;
70132;SDS011;57495;49.922;7.966;2022-10-31T07:40:50;11.20;;;4.15;;
70132;SDS011;57495;49.922;7.966;2022-10-31T07:42:52;11.98;;;4.70;;
70132;SDS011;57495;49.922;7.966;2022-10-31T07:44:54;11.48;;;4.60;;
70132;SDS011;57495;49.922;7.966;2022-10-31T07:46:55;13.40;;;3.63;;
70132;SDS011;57495;49.922;7.966;2022-10-31T07:48:57;12.75;;;4.28;;
70132;SDS011;57495;49.922;7.966;2022-10-31T07:50:58;13.88;;;4.80;;
70132;SDS011;57495;49.922;7.966;2022-10-31T07:53:00;12.05;;;5.25;;
70132;SDS011;57495;49.922;7.966;2022-10-31T07:55:03;12.05;;;4.70;;
70132;SDS011;57495;49.922;7.966;2022-10-31T07:57:06;13.13;;;4.70;;
70132;SDS011;57495;49.922;7.966;2022-10-31T07:59:08;13.07;;;5.00;;
70132;SDS011;57495;49.922;7.966;2022-10-31T08:01:09;11.88;;;4.30;;
70132;SDS011;57495;49.922;7.966;2022-10-31T08:03:11;10.45;;;4.65;;
70132;SDS011;57495;49.922;7.966;2022-10-31T08:05:14;8.88;;;4.25;;
70132;SDS011;57495;49.922;7.966;2022-10-31T08:07:15;8.30;;;4.17;;
70132;SDS011;57495;49.922;7.966;2022-10-31T08:09:17;11.38;;;3.92;;
70132;SDS011;57495;49.922;7.966;2022-10-31T08:11:18;9.73;;;4.40;;
70132;SDS011;57495;49.922;7.966;2022-10-31T08:13:21;13.63;;;4.65;;
70132;SDS011;57495;49.922;7.966;2022-10-31T08:15:23;9.68;;;4.07;;
70132;SDS011;57495;49.922;7.966;2022-10-31T08:17:24;11.60;;;4.43;;
70132;SDS011;57495;49.922;7.966;2022-10-31T08:19:26;12.45;;;4.57;;
70132;SDS011;57495;49.922;7.966;2022-10-31T08:21:27;13.90;;;4.75;;
70132;SDS011;57495;49.922;7.966;2022-10-31T08:23:29;10.32;;;4.53;;
70132;SDS011;57495;49.922;7.966;2022-10-31T08:25:31;10.18;;;4.78;;
70132;SDS011;57495;49.922;7.966;2022-10-31T08:27:34;12.40;;;4.13;;
70132;SDS011;57495;49.922;7.966;2022-10-31T08:29:37;9.27;;;4.22;;
70132;SDS011;57495;49.922;7.966;2022-10-31T08:31:38;14.40;;;4.70;;
70132;SDS011;57495;49.922;7.966;2022-10-31T08:33:39;10.18;;;4.32;;
70132;SDS011;57495;49.922;7.966;2022-10-31T08:35:41;8.50;;;4.18;;
70132;SDS011;57495;49.922;7.966;2022-10-31T08:37:43;11.03;;;4.50;;
70132;SDS011;57495;49.922;7.966;2022-10-31T08:39:44;11.07;;;4.43;;
70132;SDS011;57495;49.922;7.966;2022-10-31T08:41:45;11.10;;;4.90;;
70132;SDS011;57495;49.922;7.966;2022-10-31T08:43:47;11.10;;;4.57;;
70132;SDS011;57495;49.922;7.966;2022-10-31T08:45:50;15.13;;;4.97;;
70132;SDS011;57495;49.922;7.966;2022-10-31T08:47:57;9.90;;;4.43;;
70132;SDS011;57495;49.922;7.966;2022-10-31T08:49:59;11.32;;;4.80;;
70132;SDS011;57495;49.922;7.966;2022-10-31T08:52:00;11.20;;;4.40;;
70132;SDS011;57495;49.922;7.966;2022-10-31T08:54:02;9.02;;;4.35;;
70132;SDS011;57495;49.922;7.966;2022-10-31T08:56:04;10.55;;;4.63;;
70132;SDS011;57495;49.922;7.966;2022-10-31T08:58:06;10.73;;;4.63;;
70132;SDS011;57495;49.922;7.966;2022-10-31T09:00:09;11.25;;;4.53;;
70132;SDS011;57495;49.922;7.966;2022-10-31T09:02:12;8.93;;;4.30;;
70132;SDS011;57495;49.922;7.966;2022-10-31T09:04:13;9.02;;;4.03;;
70132;SDS011;57495;49.922;7.966;2022-10-31T09:06:15;14.27;;;4.60;;
70132;SDS011;57495;49.922;7.966;2022-10-31T09:08:16;15.63;;;4.67;;
70132;SDS011;57495;49.922;7.966;2022-10-31T09:10:18;10.55;;;4.18;;
70132;SDS011;57495;49.922;7.966;2022-10-31T09:12:19;12.63;;;4.50;;
70132;SDS011;57495;49.922;7.966;2022-10-31T09:14:20;8.45;;;3.83;;
70132;SDS011;57495;49.922;7.966;2022-10-31T09:16:22;11.43;;;5.10;;
70132;SDS011;57495;49.922;7.966;2022-10-31T09:18:25;9.70;;;4.10;;
70132;SDS011;57495;49.922;7.966;2022-10-31T09:20:27;9.93;;;4.15;;
70132;SDS011;57495;49.922;7.966;2022-10-31T09:22:29;11.00;;;4.75;;
70132;SDS011;57495;49.922;7.966;2022-10-31T09:24:31;10.30;;;4.43;;
70132;SDS011;57495;49.922;7.966;2022-10-31T09:26:32;11.35;;;4.22;;
70132;SDS011;57495;49.922;7.966;2022-10-31T09:28:34;9.07;;;3.50;;
70132;SDS011;57495;49.922;7.966;2022-10-31T09:30:36;11.98;;;4.30;;
70132;SDS011;57495;49.922;7.966;2022-10-31T09:32:38;8.40;;;4.15;;
70132;SDS011;57495;49.922;7.966;2022-10-31T09:34:40;11.05;;;4.03;;
70132;SDS011;57495;49.922;7.966;2022-10-31T09:36:42;12.23;;;4.20;;
70132;SDS011;57495;49.922;7.966;2022-10-31T09:38:44;9.90;;;4.50;;
70132;SDS011;57495;49.922;7.966;2022-10-31T09:40:46;14.88;;;4.57;;
70132;SDS011;57495;49.922;7.966;2022-10-31T09:42:52;12.50;;;4.63;;
70132;SDS011;57495;49.922;7.966;2022-10-31T09:45:02;9.68;;;4.40;;
70132;SDS011;57495;49.922;7.966;2022-10-31T09:47:10;10.23;;;4.25;;
70132;SDS011;57495;49.922;7.966;2022-10-31T09:49:23;12.07;;;4.47;;
70132;SDS011;57495;49.922;7.966;2022-10-31T09:51:36;10.50;;;4.60;;
70132;SDS011;57495;49.922;7.966;2022-10-31T09:53:43;12.52;;;4.57;;
70132;SDS011;57495;49.922;7.966;2022-10-31T09:55:51;9.60;;;4.50;;
70132;SDS011;57495;49.922;7.966;2022-10-31T09:57:53;9.85;;;4.70;;
70132;SDS011;57495;49.922;7.966;2022-10-31T09:59:55;13.03;;;5.07;;
70132;SDS011;57495;49.922;7.966;2022-10-31T10:01:58;11.90;;;5.13;;
70132;SDS011;57495;49.922;7.966;2022-10-31T10:04:05;11.93;;;5.28;;
70132;SDS011;57495;49.922;7.966;2022-10-31T10:06:21;15.32;;;5.85;;
70132;SDS011;57495;49.922;7.966;2022-10-31T10:08:28;10.25;;;5.07;;
70132;SDS011;57495;49.922;7.966;2022-10-31T10:10:34;14.07;;;4.77;;
70132;SDS011;57495;49.922;7.966;2022-10-31T10:12:49;8.77;;;4.13;;
70132;SDS011;57495;49.922;7.966;2022-10-31T10:17:40;12.60;;;4.15;;
70132;SDS011;57495;49.922;7.966;2022-10-31T10:19:59;10.60;;;4.28;;
70132;SDS011;57495;49.922;7.966;2022-10-31T10:22:12;13.40;;;4.40;;
70132;SDS011;57495;49.922;7.966;2022-10-31T10:24:24;11.18;;;4.80;;
70132;SDS011;57495;49.922;7.966;2022-10-31T10:26:35;7.97;;;4.30;;
70132;SDS011;57495;49.922;7.966;2022-10-31T10:28:38;10.57;;;4.13;;
70132;SDS011;57495;49.922;7.966;2022-10-31T10:30:42;9.02;;;4.22;;
70132;SDS011;57495;49.922;7.966;2022-10-31T10:32:48;10.40;;;4.50;;
70132;SDS011;57495;49.922;7.966;2022-10-31T10:34:53;11.18;;;3.55;;
70132;SDS011;57495;49.922;7.966;2022-10-31T10:37:01;10.35;;;4.00;;
70132;SDS011;57495;49.922;7.966;2022-10-31T10:39:08;12.70;;;4.15;;
70132;SDS011;57495;49.922;7.966;2022-10-31T10:41:19;11.45;;;4.22;;
70132;SDS011;57495;49.922;7.966;2022-10-31T10:43:24;9.60;;;4.57;;
70132;SDS011;57495;49.922;7.966;2022-10-31T10:45:30;10.75;;;4.40;;
70132;SDS011;57495;49.922;7.966;2022-10-31T10:47:52;13.05;;;4.95;;
70132;SDS011;57495;49.922;7.966;2022-10-31T10:50:04;14.63;;;5.28;;
70132;SDS011;57495;49.922;7.966;2022-10-31T10:52:13;14.07;;;5.70;;
70132;SDS011;57495;49.922;7.966;2022-10-31T10:54:36;9.90;;;5.57;;
70132;SDS011;57495;49.922;7.966;2022-10-31T10:56:53;13.43;;;5.00;;
70132;SDS011;57495;49.922;7.966;2022-10-31T10:59:02;12.05;;;4.30;;
70132;SDS011;57495;49.922;7.966;2022-10-31T11:01:08;10.90;;;4.15;;
70132;SDS011;57495;49.922;7.966;2022-10-31T11:03:12;20.50;;;4.80;;
70132;SDS011;57495;49.922;7.966;2022-10-31T11:05:19;9.20;;;4.67;;
70132;SDS011;57495;49.922;7.966;2022-10-31T11:07:25;10.52;;;4.97;;
70132;SDS011;57495;49.922;7.966;2022-10-31T11:09:27;10.38;;;5.57;;
70132;SDS011;57495;49.922;7.966;2022-10-31T11:11:28;12.30;;;5.65;;
70132;SDS011;57495;49.922;7.966;2022-10-31T11:13:33;12.40;;;5.18;;
70132;SDS011;57495;49.922;7.966;2022-10-31T11:15:37;14.07;;;5.30;;
70132;SDS011;57495;49.922;7.966;2022-10-31T11:17:50;12.07;;;5.05;;
70132;SDS011;57495;49.922;7.966;2022-10-31T11:20:00;12.10;;;5.28;;
70132;SDS011;57495;49.922;7.966;2022-10-31T11:22:07;11.68;;;5.18;;
70132;SDS011;57495;49.922;7.966;2022-10-31T11:24:15;12.57;;;5.43;;
70132;SDS011;57495;49.922;7.966;2022-10-31T11:26:18;10.43;;;4.93;;
70132;SDS011;57495;49.922;7.966;2022-10-31T11:28:21;18.52;;;5.22;;
70132;SDS011;57495;49.922;7.966;2022-10-31T11:30:24;14.75;;;5.68;;
70132;SDS011;57495;49.922;7.966;2022-10-31T11:32:26;10.88;;;5.30;;
70132;SDS011;57495;49.922;7.966;2022-10-31T11:34:30;13.95;;;6.18;;
70132;SDS011;57495;49.922;7.966;2022-10-31T11:36:35;12.73;;;5.57;;
70132;SDS011;57495;49.922;7.966;2022-10-31T11:38:39;19.33;;;5.95;;
70132;SDS011;57495;49.922;7.966;2022-10-31T11:40:50;13.88;;;5.53;;
70132;SDS011;57495;49.922;7.966;2022-10-31T11:42:54;15.65;;;5.85;;
70132;SDS011;57495;49.922;7.966;2022-10-31T11:44:57;14.48;;;6.07;;
70132;SDS011;57495;49.922;7.966;2022-10-31T11:47:12;13.40;;;5.93;;
70132;SDS011;57495;49.922;7.966;2022-10-31T11:49:16;12.43;;;6.13;;
70132;SDS011;57495;49.922;7.966;2022-10-31T11:51:21;13.43;;;5.63;;
70132;SDS011;57495;49.922;7.966;2022-10-31T11:53:26;14.80;;;6.57;;
70132;SDS011;57495;49.922;7.966;2022-10-31T11:55:30;13.10;;;5.65;;
70132;SDS011;57495;49.922;7.966;2022-10-31T11:57:42;13.23;;;6.37;;
70132;SDS011;57495;49.922;7.966;2022-10-31T11:59:50;13.48;;;5.97;;
70132;SDS011;57495;49.922;7.966;2022-10-31T12:01:53;12.52;;;6.47;;
70132;SDS011;57495;49.922;7.966;2022-10-31T12:04:01;18.38;;;7.28;;
70132;SDS011;57495;49.922;7.966;2022-10-31T12:06:07;15.45;;;6.32;;
70132;SDS011;57495;49.922;7.966;2022-10-31T12:08:14;11.87;;;6.17;;
70132;SDS011;57495;49.922;7.966;2022-10-31T12:10:15;12.32;;;6.20;;
70132;SDS011;57495;49.922;7.966;2022-10-31T12:12:29;14.07;;;7.35;;
70132;SDS011;57495;49.922;7.966;2022-10-31T12:14:45;15.30;;;6.85;;
70132;SDS011;57495;49.922;7.966;2022-10-31T12:16:57;16.60;;;6.95;;
70132;SDS011;57495;49.922;7.966;2022-10-31T12:19:09;15.53;;;7.27;;
70132;SDS011;57495;49.922;7.966;2022-10-31T12:21:19;12.45;;;6.93;;
70132;SDS011;57495;49.922;7.966;2022-10-31T12:23:44;15.05;;;7.07;;
70132;SDS011;57495;49.922;7.966;2022-10-31T12:25:57;13.63;;;6.85;;
70132;SDS011;57495;49.922;7.966;2022-10-31T12:28:14;15.05;;;7.03;;